createdAt,value
2018-09-06T09:25:33.141Z,20.58
2018-09-06T09:26:59.605Z,20.62
2018-09-06T09:29:35.823Z,20.82
2018-09-06T09:31:01.647Z,20.78
2018-09-06T09:32:28.364Z,20.74
2018-09-06T09:33:54.878Z,20.66
2018-09-06T09:35:22.102Z,20.67
2018-09-06T09:36:48.193Z,20.69
2018-09-06T09:38:15.807Z,20.69
2018-09-06T09:39:41.841Z,20.65
2018-09-06T09:41:08.642Z,20.63
2018-09-06T09:42:37.047Z,20.63
2018-09-06T09:44:03.479Z,20.70
2018-09-06T09:45:31.508Z,20.82
2018-09-06T09:48:26.219Z,20.97
2018-09-06T09:49:53.655Z,21.02
2018-09-06T09:51:20.082Z,21.07
2018-09-06T09:52:46.645Z,21.18
2018-09-06T09:54:14.003Z,21.19
2018-09-06T09:55:42.335Z,21.26
2018-09-06T09:57:08.276Z,21.30
2018-09-06T09:58:35.769Z,21.36
2018-09-06T10:00:03.769Z,21.41
2018-09-06T10:01:30.785Z,21.47
2018-09-06T10:02:57.189Z,21.54
2018-09-06T10:04:24.574Z,21.55
2018-09-06T10:05:52.163Z,21.54
2018-09-06T10:07:20.790Z,21.51
2018-09-06T10:08:46.658Z,21.57
2018-09-06T10:10:14.674Z,21.62
2018-09-06T10:11:41.148Z,21.62
2018-09-06T10:13:08.717Z,21.53
2018-09-06T10:14:37.234Z,21.49
2018-09-06T10:16:03.126Z,21.48
2018-09-06T10:17:31.216Z,21.54
2018-09-06T10:18:57.707Z,21.63
2018-09-06T10:20:25.167Z,21.66
2018-09-06T10:21:53.798Z,21.69
2018-09-06T10:23:20.271Z,21.81
2018-09-06T10:24:48.821Z,21.96
2018-09-06T10:26:16.422Z,22.04
2018-09-06T10:27:42.776Z,22.13
2018-09-06T10:29:10.363Z,22.20
2018-09-06T10:30:38.668Z,22.15
2018-09-06T10:32:06.134Z,22.17
2018-09-06T10:33:33.752Z,22.15
2018-09-06T10:35:00.140Z,22.17
2018-09-06T10:36:27.807Z,22.20
2018-09-06T10:37:56.343Z,22.17
2018-09-06T10:39:22.695Z,22.08
2018-09-06T10:40:50.078Z,22.00
2018-09-06T10:42:18.145Z,21.92
2018-09-06T10:43:45.680Z,21.93
2018-09-06T10:45:12.156Z,22.01
2018-09-06T10:46:38.606Z,22.14
2018-09-06T10:48:05.486Z,22.19
2018-09-06T10:49:33.140Z,22.17
2018-09-06T10:51:00.488Z,22.10
2018-09-06T10:52:28.084Z,22.16
2018-09-06T10:53:56.676Z,22.19
2018-09-06T10:55:23.566Z,22.20
2018-09-06T10:56:51.042Z,22.28
2018-09-06T10:58:17.349Z,22.39
2018-09-06T10:59:45.426Z,22.50
2018-09-06T11:01:12.878Z,22.57
2018-09-06T11:02:39.425Z,22.52
2018-09-06T11:04:07.038Z,22.62
2018-09-06T11:05:34.578Z,22.71
2018-09-06T11:07:02.293Z,22.76
2018-09-06T11:08:30.483Z,22.82
2018-09-06T11:09:56.952Z,22.85
2018-09-06T11:11:25.376Z,22.93
2018-09-06T11:12:51.874Z,22.98
2018-09-06T11:14:19.339Z,22.99
2018-09-06T11:15:46.872Z,22.92
2018-09-06T11:17:15.340Z,22.99
2018-09-06T11:18:41.999Z,23.09
2018-09-06T11:20:10.800Z,23.19
2018-09-06T11:21:38.644Z,23.17
2018-09-06T11:23:04.735Z,23.12
2018-09-06T11:24:31.967Z,23.12
2018-09-06T11:25:59.568Z,23.14
2018-09-06T11:27:28.279Z,23.11
2018-09-06T11:28:55.059Z,23.22
2018-09-06T11:30:22.361Z,23.19
2018-09-06T11:31:49.954Z,23.21
2018-09-06T11:33:16.005Z,23.33
2018-09-06T11:34:43.857Z,23.47
2018-09-06T11:36:10.933Z,23.64
2018-09-06T11:37:37.472Z,23.71
2018-09-06T11:39:05.058Z,23.88
2018-09-06T11:40:32.247Z,23.99
2018-09-06T11:42:05.617Z,24.00
2018-09-06T11:43:26.981Z,23.95
2018-09-06T11:44:55.383Z,24.12
2018-09-06T11:46:22.053Z,24.37
2018-09-06T11:47:49.648Z,24.53
2018-09-06T11:49:17.065Z,24.51
2018-09-06T11:50:44.369Z,24.49
2018-09-06T11:52:11.632Z,24.43
2018-09-06T11:53:39.784Z,24.26
2018-09-06T11:55:07.292Z,24.30
2018-09-06T11:56:34.737Z,24.33
2018-09-06T11:58:02.069Z,24.32
2018-09-06T11:59:28.556Z,24.23
2018-09-06T12:00:55.513Z,24.52
2018-09-06T12:02:23.500Z,24.57
2018-09-06T12:03:49.311Z,24.59
2018-09-06T12:05:17.865Z,24.56
2018-09-06T12:06:44.508Z,24.56
2018-09-06T12:08:11.983Z,24.49
2018-09-06T12:09:39.611Z,24.41
2018-09-06T12:11:07.152Z,24.46
2018-09-06T12:12:35.766Z,24.55
2018-09-06T12:14:03.348Z,24.71
2018-09-06T12:15:29.650Z,24.73
2018-09-06T12:16:57.243Z,24.61
2018-09-06T12:18:24.883Z,24.51
2018-09-06T12:19:52.229Z,24.58
2018-09-06T12:21:18.980Z,24.70
2018-09-06T12:22:46.597Z,24.76
2018-09-06T12:24:15.044Z,24.81
2018-09-06T12:25:41.742Z,24.84
2018-09-06T12:27:09.301Z,24.96
2018-09-06T12:28:37.999Z,24.91
2018-09-06T12:30:05.484Z,24.89
2018-09-06T12:31:31.971Z,24.91
2018-09-06T12:32:59.600Z,24.77
2018-09-06T12:34:27.267Z,24.82
2018-09-06T12:35:54.719Z,24.88
2018-09-06T12:37:23.256Z,24.94
2018-09-06T12:38:49.856Z,25.04
2018-09-06T12:40:18.432Z,25.27
2018-09-06T12:41:44.420Z,25.47
2018-09-06T12:43:11.979Z,25.58
2018-09-06T12:44:39.465Z,25.63
2018-09-06T12:46:06.925Z,25.66
2018-09-06T12:47:35.552Z,25.62
2018-09-06T12:49:02.143Z,25.43
2018-09-06T12:50:30.758Z,25.24
2018-09-06T12:51:57.473Z,25.09
2018-09-06T12:53:23.397Z,24.88
2018-09-06T12:54:52.020Z,25.00
2018-09-06T12:56:17.880Z,25.11
2018-09-06T12:57:45.430Z,25.06
2018-09-06T12:59:12.957Z,25.04
2018-09-06T13:00:40.667Z,25.02
2018-09-06T13:02:08.249Z,25.07
2018-09-06T13:03:35.067Z,24.99
2018-09-06T13:05:02.621Z,24.95
2018-09-06T13:06:31.306Z,24.93
2018-09-06T13:07:58.846Z,25.04
2018-09-06T13:09:25.337Z,25.20
2018-09-06T13:10:53.256Z,25.39
2018-09-06T13:12:20.752Z,25.48
2018-09-06T13:13:47.451Z,25.52
2018-09-06T13:15:15.059Z,25.42
2018-09-06T13:16:42.811Z,25.42
2018-09-06T13:18:10.348Z,25.47
2018-09-06T13:19:37.855Z,25.53
2018-09-06T13:21:06.385Z,25.55
2018-09-06T13:22:34.035Z,25.43
2018-09-06T13:24:00.599Z,25.48
2018-09-06T13:25:29.159Z,25.40
2018-09-06T13:26:56.722Z,25.33
2018-09-06T13:28:23.318Z,25.43
2018-09-06T13:29:51.092Z,25.41
2018-09-06T13:31:16.925Z,25.36
2018-09-06T13:32:44.611Z,25.41
2018-09-06T13:34:12.264Z,25.46
2018-09-06T13:35:39.682Z,25.57
2018-09-06T13:37:07.337Z,25.68
2018-09-06T13:38:35.930Z,25.53
2018-09-06T13:40:03.591Z,25.29
2018-09-06T13:41:31.103Z,25.40
2018-09-06T13:42:57.593Z,25.28
2018-09-06T13:44:25.198Z,24.96
2018-09-06T13:45:52.158Z,24.93
2018-09-06T13:47:20.731Z,24.96
2018-09-06T13:48:46.730Z,24.83
2018-09-06T13:50:14.415Z,24.75
2018-09-06T13:51:42.894Z,24.68
2018-09-06T13:53:10.752Z,24.70
2018-09-06T13:54:38.292Z,24.63
2018-09-06T13:56:05.862Z,24.55
2018-09-06T13:57:33.418Z,24.39
2018-09-06T13:58:59.745Z,24.32
2018-09-06T14:00:26.969Z,24.24
2018-09-06T14:01:55.556Z,24.20
2018-09-06T14:03:22.028Z,24.09
2018-09-06T14:04:49.251Z,23.98
2018-09-06T14:06:17.649Z,23.96
2018-09-06T14:07:44.323Z,23.94
2018-09-06T14:09:11.830Z,23.81
2018-09-06T14:10:38.128Z,23.65
2018-09-06T14:12:05.547Z,23.63
2018-09-06T14:13:33.111Z,23.61
2018-09-06T14:15:00.231Z,23.59
2018-09-06T14:16:27.757Z,23.63
2018-09-06T14:17:55.974Z,23.67
2018-09-06T14:19:22.693Z,23.71
2018-09-06T14:20:51.256Z,23.72
2018-09-06T14:22:18.859Z,23.69
2018-09-06T14:23:46.361Z,23.63
2018-09-06T14:25:12.818Z,23.65
2018-09-06T14:26:41.444Z,23.60
2018-09-06T14:28:08.066Z,23.58
2018-09-06T14:29:36.757Z,23.53
2018-09-06T14:31:03.789Z,23.46
2018-09-06T14:32:30.197Z,23.48
2018-09-06T14:33:57.777Z,23.46
2018-09-06T14:35:25.367Z,23.44
2018-09-06T14:36:52.953Z,23.41
2018-09-06T14:38:21.210Z,23.44
2018-09-06T14:39:47.753Z,23.41
2018-09-06T14:41:15.225Z,23.34
2018-09-06T14:42:42.810Z,23.28
2018-09-06T14:44:10.205Z,23.24
2018-09-06T14:45:38.729Z,23.16
2018-09-06T14:47:06.176Z,23.15
2018-09-06T14:48:32.638Z,23.11
2018-09-06T14:50:00.965Z,23.11
2018-09-06T14:51:28.496Z,23.15
2018-09-06T14:52:54.981Z,23.21
2018-09-06T14:54:22.074Z,23.23
2018-09-06T14:55:50.527Z,23.25
2018-09-06T14:57:18.140Z,23.28
2018-09-06T14:58:44.652Z,23.29
2018-09-06T15:00:12.427Z,23.26
2018-09-06T15:01:39.200Z,23.27
2018-09-06T15:03:05.753Z,23.24
2018-09-06T15:04:33.300Z,23.24
2018-09-06T15:06:00.860Z,23.27
2018-09-06T15:07:29.487Z,23.29
2018-09-06T15:08:55.921Z,23.33
2018-09-06T15:10:23.501Z,23.21
2018-09-06T15:11:50.541Z,23.16
2018-09-06T15:13:17.558Z,23.16
2018-09-06T15:14:45.122Z,23.11
2018-09-06T15:16:12.756Z,23.09
2018-09-06T15:17:39.924Z,23.11
2018-09-06T15:19:08.246Z,23.13
2018-09-06T15:20:34.577Z,23.06
2018-09-06T15:22:01.760Z,23.01
2018-09-06T15:23:30.242Z,23.04
2018-09-06T15:24:57.829Z,23.05
2018-09-06T15:26:24.418Z,23.05
2018-09-06T15:27:51.999Z,23.06
2018-09-06T15:29:20.506Z,23.10
2018-09-06T15:30:47.136Z,23.00
2018-09-06T15:32:14.642Z,22.92
2018-09-06T15:33:42.159Z,22.89
2018-09-06T15:35:10.592Z,22.86
2018-09-06T15:36:36.834Z,22.81
2018-09-06T15:38:05.324Z,22.73
2018-09-06T15:39:31.294Z,22.68
2018-09-06T15:40:58.816Z,22.66
2018-09-06T15:42:27.369Z,22.69
2018-09-06T15:43:53.867Z,22.70
2018-09-06T15:45:21.278Z,22.72
2018-09-06T15:46:48.970Z,22.76
2018-09-06T15:48:17.607Z,22.77
2018-09-06T15:49:44.712Z,22.75
2018-09-06T15:51:10.560Z,22.73
2018-09-06T15:52:39.092Z,22.74
2018-09-06T15:54:05.599Z,22.70
2018-09-06T15:55:33.153Z,22.69
2018-09-06T15:57:00.719Z,22.67
2018-09-06T15:58:29.326Z,22.67
2018-09-06T15:59:55.864Z,22.65
2018-09-06T16:01:23.597Z,22.62
2018-09-06T16:02:50.183Z,22.59
2018-09-06T16:04:17.804Z,22.54
2018-09-06T16:05:45.754Z,22.50
2018-09-06T16:07:12.887Z,22.52
2018-09-06T16:08:40.357Z,22.51
2018-09-06T16:10:06.030Z,22.49
2018-09-06T16:11:33.475Z,22.45
2018-09-06T16:13:00.954Z,22.45
2018-09-06T16:14:28.352Z,22.43
2018-09-06T16:15:55.888Z,22.42
2018-09-06T16:17:23.448Z,22.39
2018-09-06T16:18:50.774Z,22.37
2018-09-06T16:20:18.338Z,22.35
2018-09-06T16:21:45.257Z,22.33
2018-09-06T16:23:12.178Z,22.34
2018-09-06T16:24:40.161Z,22.31
2018-09-06T16:26:07.255Z,22.29
2018-09-06T16:27:33.713Z,22.26
2018-09-06T16:29:01.266Z,22.17
2018-09-06T16:30:28.519Z,22.14
2018-09-06T16:31:56.224Z,22.11
2018-09-06T16:33:24.818Z,22.09
2018-09-06T16:34:51.387Z,22.05
2018-09-06T16:36:19.403Z,22.02
2018-09-06T16:37:45.865Z,21.97
2018-09-06T16:39:13.441Z,21.92
2018-09-06T16:40:42.022Z,21.88
2018-09-06T16:42:08.634Z,21.85
2018-09-06T16:43:36.096Z,21.82
2018-09-06T16:45:04.530Z,21.81
2018-09-06T16:46:30.933Z,21.77
2018-09-06T16:47:59.560Z,21.70
2018-09-06T16:49:26.133Z,21.63
2018-09-06T16:50:53.642Z,21.61
2018-09-06T16:52:22.112Z,21.58
2018-09-06T16:53:48.591Z,21.55
2018-09-06T16:55:16.505Z,21.50
2018-09-06T16:56:42.908Z,21.47
2018-09-06T16:58:10.503Z,21.46
2018-09-06T16:59:37.773Z,21.41
2018-09-06T17:01:05.308Z,21.35
2018-09-06T17:02:33.837Z,21.30
2018-09-06T17:04:00.243Z,21.28
2018-09-06T17:05:28.548Z,21.25
2018-09-06T17:06:54.664Z,21.21
2018-09-06T17:08:21.940Z,21.18
2018-09-06T17:09:49.473Z,21.12
2018-09-06T17:11:16.716Z,21.13
2018-09-06T17:12:43.492Z,21.11
2018-09-06T17:14:11.499Z,21.04
2018-09-06T17:15:38.077Z,21.01
2018-09-06T17:17:11.455Z,20.96
2018-09-06T17:18:32.747Z,20.91
2018-09-06T17:20:00.191Z,20.84
2018-09-06T17:21:26.996Z,20.77
2018-09-06T17:22:54.577Z,20.73
2018-09-06T17:24:22.129Z,20.71
2018-09-06T17:25:49.735Z,20.70
2018-09-06T17:27:18.282Z,20.68
2018-09-06T17:28:45.736Z,20.63
2018-09-06T17:30:12.311Z,20.60
2018-09-06T17:31:39.753Z,20.57
2018-09-06T17:33:08.338Z,20.55
2018-09-06T17:34:34.233Z,20.51
2018-09-06T17:36:02.844Z,20.49
2018-09-06T17:37:29.268Z,20.46
2018-09-06T17:38:56.986Z,20.42
2018-09-06T17:40:24.256Z,20.38
2018-09-06T17:41:52.832Z,20.34
2018-09-06T17:43:20.223Z,20.33
2018-09-06T17:44:46.739Z,20.33
2018-09-06T17:46:14.425Z,20.29
2018-09-06T17:47:41.945Z,20.26
2018-09-06T17:49:09.869Z,20.25
2018-09-06T17:50:37.384Z,20.19
2018-09-06T17:52:03.701Z,20.16
2018-09-06T17:53:31.081Z,20.16
2018-09-06T17:54:59.567Z,20.14
2018-09-06T17:56:25.934Z,20.13
2018-09-06T17:57:54.558Z,20.12
2018-09-06T17:59:20.158Z,20.11
2018-09-06T18:00:48.237Z,20.11
2018-09-06T18:02:14.210Z,20.10
2018-09-06T18:03:40.857Z,20.09
2018-09-06T18:05:08.244Z,20.06
2018-09-06T18:06:35.975Z,20.05
2018-09-06T18:08:03.865Z,20.00
2018-09-06T18:09:30.287Z,19.96
2018-09-06T18:10:57.176Z,19.96
2018-09-06T18:12:24.448Z,19.94
2018-09-06T18:13:53.041Z,19.89
2018-09-06T18:15:19.132Z,19.86
2018-09-06T18:16:46.569Z,19.84
2018-09-06T18:18:14.089Z,19.81
2018-09-06T18:19:42.809Z,19.79
2018-09-06T18:21:09.137Z,19.75
2018-09-06T18:22:36.674Z,19.70
2018-09-06T18:24:03.575Z,19.70
2018-09-06T18:25:32.195Z,19.67
2018-09-06T18:26:58.362Z,19.65
2018-09-06T18:28:25.818Z,19.63
2018-09-06T18:29:54.496Z,19.62
2018-09-06T18:31:21.014Z,19.57
2018-09-06T18:32:48.554Z,19.56
2018-09-06T18:34:16.061Z,19.52
2018-09-06T18:35:44.774Z,19.51
2018-09-06T18:37:12.246Z,19.49
2018-09-06T18:38:39.864Z,19.48
2018-09-06T18:40:06.196Z,19.48
2018-09-06T18:41:33.165Z,19.45
